createdAt,value
2019-04-05T00:00:47.866Z,89.65
2019-04-05T00:03:16.550Z,89.98
2019-04-05T00:05:45.373Z,90.53
2019-04-05T00:08:14.390Z,90.58
2019-04-05T00:10:43.226Z,90.09
2019-04-05T00:13:12.168Z,89.91
2019-04-05T00:15:40.951Z,90.27
2019-04-05T00:18:09.606Z,90.36
2019-04-05T00:20:38.648Z,90.01
2019-04-05T00:23:07.593Z,89.49
2019-04-05T00:25:36.369Z,89.89
2019-04-05T00:28:05.169Z,90.16
2019-04-05T00:30:36.295Z,90.13
2019-04-05T00:33:05.141Z,90.35
2019-04-05T00:35:33.840Z,89.86
2019-04-05T00:38:02.533Z,90.04
2019-04-05T00:40:31.300Z,90.34
2019-04-05T00:43:00.054Z,90.58
2019-04-05T00:45:28.963Z,90.43
2019-04-05T00:47:57.927Z,90.27
2019-04-05T00:50:26.710Z,89.58
2019-04-05T00:52:55.698Z,89.88
2019-04-05T00:55:24.458Z,90.28
2019-04-05T00:57:53.304Z,90.30
2019-04-05T01:00:22.517Z,90.51
2019-04-05T01:02:51.542Z,90.62
2019-04-05T01:05:20.249Z,90.63
2019-04-05T01:07:49.174Z,90.64
2019-04-05T01:10:18.777Z,90.41
2019-04-05T01:12:48.047Z,90.54
2019-04-05T01:15:17.187Z,90.74
2019-04-05T01:17:46.181Z,90.92
2019-04-05T01:20:15.086Z,90.94
2019-04-05T01:22:46.418Z,91.10
2019-04-05T01:25:15.814Z,91.16
2019-04-05T01:27:44.911Z,91.22
2019-04-05T01:30:14.995Z,91.25
2019-04-05T01:32:43.994Z,91.40
2019-04-05T01:35:13.186Z,91.47
2019-04-05T01:37:42.702Z,91.58
2019-04-05T01:40:11.911Z,91.63
2019-04-05T01:42:41.448Z,91.61
2019-04-05T01:45:10.484Z,91.27
2019-04-05T01:47:39.405Z,91.33
2019-04-05T01:50:08.947Z,91.21
2019-04-05T01:52:38.175Z,91.31
2019-04-05T01:55:08.045Z,91.17
2019-04-05T01:57:36.975Z,91.15
2019-04-05T02:00:07.236Z,91.39
2019-04-05T02:02:35.972Z,91.44
2019-04-05T02:05:06.459Z,91.47
2019-04-05T02:07:35.455Z,91.70
2019-04-05T02:10:05.050Z,91.78
2019-04-05T02:12:34.488Z,91.67
2019-04-05T02:15:03.592Z,91.77
2019-04-05T02:17:32.350Z,91.45
2019-04-05T02:20:01.113Z,91.24
2019-04-05T02:22:29.803Z,91.30
2019-04-05T02:24:58.572Z,91.18
2019-04-05T02:27:27.901Z,91.14
2019-04-05T02:29:56.917Z,90.90
2019-04-05T02:32:25.685Z,90.98
2019-04-05T02:34:54.634Z,90.65
2019-04-05T02:37:23.974Z,90.77
2019-04-05T02:39:52.972Z,90.61
2019-04-05T02:42:22.158Z,91.14
2019-04-05T02:44:52.439Z,90.98
2019-04-05T02:47:22.111Z,90.81
2019-04-05T02:49:52.462Z,90.73
2019-04-05T02:52:22.190Z,90.63
2019-04-05T02:54:52.897Z,90.88
2019-04-05T02:57:22.805Z,90.75
2019-04-05T02:59:52.797Z,90.67
2019-04-05T03:02:21.997Z,90.41
2019-04-05T03:04:50.689Z,90.92
2019-04-05T03:07:19.781Z,90.83
2019-04-05T03:09:49.413Z,90.86
2019-04-05T03:12:19.216Z,90.87
2019-04-05T03:14:51.408Z,90.89
2019-04-05T03:17:20.472Z,90.63
2019-04-05T03:20:09.823Z,90.87
2019-04-05T03:22:40.853Z,90.84
2019-04-05T03:25:09.689Z,90.49
2019-04-05T03:27:39.635Z,90.71
2019-04-05T03:30:08.782Z,90.49
2019-04-05T03:32:38.447Z,89.71
2019-04-05T03:35:07.372Z,89.80
2019-04-05T03:37:36.239Z,89.54
2019-04-05T03:40:05.937Z,89.12
2019-04-05T03:42:35.646Z,89.11
2019-04-05T03:45:04.659Z,88.89
2019-04-05T03:47:33.477Z,88.90
2019-04-05T03:50:02.337Z,89.72
2019-04-05T03:52:31.828Z,90.43
2019-04-05T03:55:00.581Z,90.37
2019-04-05T03:57:29.955Z,89.72
2019-04-05T04:00:01.523Z,90.04
2019-04-05T04:02:30.712Z,89.90
2019-04-05T04:04:59.778Z,89.32
2019-04-05T04:07:28.713Z,89.49
2019-04-05T04:09:57.540Z,89.27
2019-04-05T04:12:26.388Z,88.93
2019-04-05T04:14:57.404Z,88.99
2019-04-05T04:17:26.501Z,88.73
2019-04-05T04:19:55.491Z,89.42
2019-04-05T04:22:31.236Z,89.48
2019-04-05T04:25:00.750Z,89.84
2019-04-05T04:27:30.103Z,89.89
2019-04-05T04:30:00.518Z,89.98
2019-04-05T04:32:29.960Z,89.42
2019-04-05T04:34:59.191Z,88.64
2019-04-05T04:37:28.499Z,88.65
2019-04-05T04:39:57.840Z,88.73
2019-04-05T04:42:27.133Z,88.74
2019-04-05T04:44:55.973Z,88.49
2019-04-05T04:47:27.405Z,88.20
2019-04-05T04:49:57.899Z,88.78
2019-04-05T04:52:31.038Z,87.97
2019-04-05T04:54:59.479Z,87.46
2019-04-05T04:57:28.439Z,87.59
2019-04-05T04:59:57.633Z,88.09
2019-04-05T05:02:26.882Z,87.90
2019-04-05T05:04:55.733Z,88.05
2019-04-05T05:07:24.499Z,87.94
2019-04-05T05:09:53.336Z,87.99
2019-04-05T05:12:22.438Z,88.02
2019-04-05T05:14:51.209Z,88.05
2019-04-05T05:17:20.075Z,88.33
2019-04-05T05:19:49.107Z,87.34
2019-04-05T05:22:17.980Z,87.31
2019-04-05T05:24:47.089Z,88.00
2019-04-05T05:27:16.054Z,87.68
2019-04-05T05:29:45.329Z,87.71
2019-04-05T05:32:14.530Z,88.02
2019-04-05T05:34:43.376Z,87.90
2019-04-05T05:37:12.413Z,88.21
2019-04-05T05:39:41.085Z,87.84
2019-04-05T05:42:09.793Z,87.87
2019-04-05T05:44:38.725Z,88.17
2019-04-05T05:47:07.725Z,88.39
2019-04-05T05:49:36.678Z,88.27
2019-04-05T05:52:05.749Z,88.35
2019-04-05T05:54:34.530Z,88.60
2019-04-05T05:57:03.677Z,88.46
2019-04-05T05:59:32.394Z,88.54
2019-04-05T06:02:03.680Z,88.89
2019-04-05T06:04:32.405Z,88.27
2019-04-05T06:07:01.587Z,88.34
2019-04-05T06:09:30.799Z,88.39
2019-04-05T06:11:59.671Z,87.98
2019-04-05T06:14:28.639Z,87.65
2019-04-05T06:16:57.337Z,87.67
2019-04-05T06:19:26.073Z,88.14
2019-04-05T06:21:54.856Z,87.95
2019-04-05T06:24:23.572Z,87.70
2019-04-05T06:26:53.041Z,87.65
2019-04-05T06:29:21.737Z,87.51
2019-04-05T06:31:50.538Z,87.70
2019-04-05T06:34:19.587Z,87.75
2019-04-05T06:36:51.086Z,87.85
2019-04-05T06:39:20.649Z,87.73
2019-04-05T06:41:49.522Z,87.67
2019-04-05T06:44:18.222Z,88.25
2019-04-05T06:46:46.914Z,88.42
2019-04-05T06:49:15.641Z,88.18
2019-04-05T06:51:44.596Z,87.21
2019-04-05T06:54:13.773Z,87.00
2019-04-05T06:56:42.703Z,87.68
2019-04-05T06:59:11.767Z,88.40
2019-04-05T07:01:40.462Z,88.28
2019-04-05T07:04:09.401Z,87.18
2019-04-05T07:06:38.071Z,87.33
2019-04-05T07:09:07.284Z,87.86
2019-04-05T07:11:36.056Z,88.21
2019-04-05T07:14:04.818Z,88.07
2019-04-05T07:16:33.669Z,87.77
2019-04-05T07:19:02.706Z,87.65
2019-04-05T07:21:31.394Z,87.35
2019-04-05T07:24:00.342Z,87.45
2019-04-05T07:26:29.554Z,87.34
2019-04-05T07:28:58.378Z,87.79
2019-04-05T07:31:27.051Z,86.89
2019-04-05T07:33:56.313Z,86.72
2019-04-05T07:36:25.517Z,86.87
2019-04-05T07:38:54.220Z,86.85
2019-04-05T07:41:23.078Z,87.03
2019-04-05T07:43:51.820Z,87.00
2019-04-05T07:46:20.586Z,86.61
2019-04-05T07:48:49.294Z,86.79
2019-04-05T07:51:17.982Z,86.88
2019-04-05T07:53:46.691Z,87.09
2019-04-05T07:56:15.431Z,87.12
2019-04-05T07:58:44.727Z,87.22
2019-04-05T08:01:14.354Z,86.99
2019-04-05T08:03:43.210Z,87.08
2019-04-05T08:06:12.556Z,88.00
2019-04-05T08:08:57.647Z,87.37
2019-04-05T08:11:27.482Z,87.00
2019-04-05T08:13:58.224Z,88.21
2019-04-05T08:16:27.055Z,87.51
2019-04-05T08:18:58.057Z,87.35
2019-04-05T08:21:26.670Z,87.55
2019-04-05T08:23:55.410Z,87.06
2019-04-05T08:26:24.321Z,87.18
2019-04-05T08:28:53.274Z,87.09
2019-04-05T08:31:22.465Z,87.09
2019-04-05T08:33:51.940Z,87.18
2019-04-05T08:36:20.724Z,87.58
2019-04-05T08:38:49.739Z,87.24
2019-04-05T08:41:18.417Z,87.35
2019-04-05T08:43:47.690Z,87.88
2019-04-05T08:46:16.615Z,87.48
2019-04-05T08:48:45.363Z,87.40
2019-04-05T08:51:14.286Z,87.22
2019-04-05T08:53:42.985Z,87.35
2019-04-05T08:56:11.934Z,87.83
2019-04-05T08:58:40.656Z,86.90
2019-04-05T09:01:09.391Z,87.12
2019-04-05T09:03:38.373Z,86.98
2019-04-05T09:06:07.322Z,86.37
2019-04-05T09:08:36.272Z,86.74
2019-04-05T09:11:05.044Z,86.29
2019-04-05T09:13:33.714Z,85.72
2019-04-05T09:16:02.654Z,85.94
2019-04-05T09:18:31.409Z,85.47
2019-04-05T09:21:00.110Z,85.80
2019-04-05T09:23:28.815Z,86.17
2019-04-05T09:25:57.766Z,85.94
2019-04-05T09:28:26.475Z,86.25
2019-04-05T09:30:56.937Z,86.83
2019-04-05T09:33:25.631Z,87.30
2019-04-05T09:35:54.334Z,87.59
2019-04-05T09:38:23.027Z,87.85
2019-04-05T09:40:51.856Z,87.43
2019-04-05T09:43:20.748Z,86.33
2019-04-05T09:45:49.528Z,86.61
2019-04-05T09:48:18.457Z,86.40
2019-04-05T09:50:47.418Z,86.90
2019-04-05T09:53:16.243Z,87.20
2019-04-05T09:55:45.022Z,86.59
2019-04-05T09:58:13.664Z,86.42
2019-04-05T10:00:42.371Z,86.64
2019-04-05T10:03:11.092Z,86.90
2019-04-05T10:05:40.074Z,86.87
2019-04-05T10:08:08.966Z,87.10
2019-04-05T10:10:37.988Z,86.87
2019-04-05T10:13:09.640Z,86.91
2019-04-05T10:15:37.171Z,86.24
2019-04-05T10:18:06.006Z,86.62
2019-04-05T10:20:34.989Z,86.76
2019-04-05T10:23:03.825Z,86.55
2019-04-05T10:25:32.764Z,86.98
2019-04-05T10:28:01.944Z,87.04
2019-04-05T10:30:30.720Z,86.85
2019-04-05T10:32:59.643Z,87.12
2019-04-05T10:35:28.357Z,86.74
2019-04-05T10:37:58.482Z,86.82
2019-04-05T10:40:27.369Z,87.09
2019-04-05T10:42:56.095Z,87.64
2019-04-05T10:45:25.297Z,87.64
2019-04-05T10:47:53.976Z,87.59
2019-04-05T10:50:23.073Z,86.92
2019-04-05T10:52:52.021Z,86.33
2019-04-05T10:55:20.978Z,86.93
2019-04-05T10:57:49.920Z,86.54
2019-04-05T11:00:19.462Z,86.86
2019-04-05T11:02:48.184Z,87.68
2019-04-05T11:05:17.037Z,87.94
2019-04-05T11:07:45.730Z,86.70
2019-04-05T11:10:15.105Z,86.97
2019-04-05T11:12:43.838Z,87.51
2019-04-05T11:15:15.112Z,87.16
2019-04-05T11:17:43.405Z,86.90
2019-04-05T11:20:21.099Z,87.11
2019-04-05T11:22:46.537Z,85.81
2019-04-05T11:25:14.585Z,86.13
2019-04-05T11:27:43.552Z,86.34
2019-04-05T11:30:14.363Z,86.41
2019-04-05T11:32:43.140Z,87.32
2019-04-05T11:35:14.917Z,87.36
2019-04-05T11:37:42.806Z,87.40
2019-04-05T11:40:13.067Z,86.95
2019-04-05T11:42:43.306Z,87.22
2019-04-05T11:45:12.145Z,86.90
2019-04-05T11:47:42.709Z,87.70
2019-04-05T11:50:12.801Z,87.83
2019-04-05T11:52:41.508Z,86.77
2019-04-05T11:55:10.607Z,86.16
2019-04-05T11:57:41.474Z,86.55
2019-04-05T12:00:16.182Z,86.85
2019-04-05T12:02:48.623Z,87.29
2019-04-05T12:05:20.348Z,86.88
2019-04-05T12:07:49.304Z,86.25
2019-04-05T12:10:19.528Z,86.05
2019-04-05T12:12:48.626Z,85.97
2019-04-05T12:15:17.471Z,86.52
2019-04-05T12:17:46.412Z,87.44
2019-04-05T12:20:15.822Z,87.63
2019-04-05T12:22:44.581Z,86.80
2019-04-05T12:25:13.600Z,86.21
2019-04-05T12:27:42.293Z,85.26
2019-04-05T12:30:13.563Z,85.29
2019-04-05T12:32:42.511Z,85.71
2019-04-05T12:35:11.385Z,86.17
2019-04-05T12:37:50.230Z,85.75
2019-04-05T12:40:11.322Z,85.08
2019-04-05T12:42:43.516Z,85.81
2019-04-05T12:45:15.267Z,85.41
2019-04-05T12:47:45.547Z,86.05
2019-04-05T12:50:15.394Z,84.98
2019-04-05T12:52:44.724Z,84.79
2019-04-05T12:55:13.874Z,85.33
2019-04-05T12:57:42.579Z,85.53
2019-04-05T13:00:14.705Z,85.93
2019-04-05T13:02:43.548Z,86.67
2019-04-05T13:05:14.980Z,87.25
2019-04-05T13:07:43.940Z,85.31
2019-04-05T13:10:13.769Z,85.89
2019-04-05T13:12:42.718Z,85.36
2019-04-05T13:15:16.869Z,85.60
2019-04-05T13:17:42.194Z,85.69
2019-04-05T13:20:11.642Z,85.33
2019-04-05T13:22:40.359Z,86.14
2019-04-05T13:25:11.091Z,86.95
2019-04-05T13:27:41.509Z,85.81
2019-04-05T13:30:10.268Z,85.82
2019-04-05T13:32:38.983Z,86.58
2019-04-05T13:35:08.321Z,87.32
2019-04-05T13:37:37.103Z,87.65
2019-04-05T13:40:07.357Z,86.32
2019-04-05T13:42:36.357Z,86.33
2019-04-05T13:45:05.649Z,85.80
2019-04-05T13:47:37.916Z,86.04
2019-04-05T13:50:06.248Z,86.43
2019-04-05T13:52:35.205Z,86.76
2019-04-05T13:55:03.992Z,85.59
2019-04-05T13:57:32.931Z,85.16
2019-04-05T14:00:01.622Z,85.30
2019-04-05T14:02:30.380Z,85.86
2019-04-05T14:04:59.355Z,85.97
2019-04-05T14:07:28.054Z,86.22
2019-04-05T14:09:56.984Z,85.36
2019-04-05T14:12:25.942Z,85.71
2019-04-05T14:14:54.908Z,84.73
2019-04-05T14:17:23.858Z,85.44
2019-04-05T14:19:52.568Z,85.01
2019-04-05T14:22:22.489Z,85.94
2019-04-05T14:24:52.550Z,86.06
2019-04-05T14:27:22.415Z,85.80
2019-04-05T14:29:51.614Z,85.77
2019-04-05T14:32:21.897Z,85.57
2019-04-05T14:34:54.766Z,84.89
2019-04-05T14:37:24.949Z,84.98
2019-04-05T14:39:53.137Z,84.62
2019-04-05T14:42:22.322Z,84.67
2019-04-05T14:44:51.021Z,85.20
2019-04-05T14:47:20.057Z,85.92
2019-04-05T14:49:48.880Z,86.33
2019-04-05T14:52:17.795Z,84.84
2019-04-05T14:54:46.580Z,84.72
2019-04-05T14:57:15.265Z,84.61
2019-04-05T14:59:44.200Z,84.72
2019-04-05T15:02:12.929Z,85.38
2019-04-05T15:04:41.854Z,86.00
2019-04-05T15:07:13.785Z,85.28
2019-04-05T15:09:42.487Z,85.71
2019-04-05T15:12:11.725Z,86.30
2019-04-05T15:14:41.120Z,84.90
2019-04-05T15:17:10.090Z,85.27
2019-04-05T15:19:39.212Z,86.01
2019-04-05T15:22:10.740Z,86.58
2019-04-05T15:24:38.487Z,85.98
2019-04-05T15:27:07.239Z,84.80
2019-04-05T15:29:35.931Z,85.19
2019-04-05T15:32:04.850Z,86.04
2019-04-05T15:34:33.872Z,85.73
2019-04-05T15:37:02.744Z,85.84
2019-04-05T15:39:32.299Z,85.95
2019-04-05T15:42:01.381Z,86.33
2019-04-05T15:44:30.094Z,85.67
2019-04-05T15:46:58.773Z,85.97
2019-04-05T15:49:27.474Z,86.08
2019-04-05T15:51:58.895Z,85.08
2019-04-05T15:54:28.932Z,84.87
2019-04-05T15:56:58.126Z,84.97
2019-04-05T15:59:27.172Z,85.58
2019-04-05T16:01:56.295Z,85.91
2019-04-05T16:04:25.131Z,86.13
2019-04-05T16:06:54.630Z,86.15
2019-04-05T16:09:24.069Z,85.31
2019-04-05T16:11:52.878Z,85.25
2019-04-05T16:14:22.147Z,85.29
2019-04-05T16:16:51.081Z,85.87
2019-04-05T16:19:19.776Z,86.28
2019-04-05T16:21:48.731Z,86.60
2019-04-05T16:24:17.431Z,86.04
2019-04-05T16:26:46.360Z,85.71
2019-04-05T16:29:15.189Z,85.96
2019-04-05T16:31:43.907Z,85.91
2019-04-05T16:34:13.237Z,85.85
2019-04-05T16:36:42.194Z,85.72
2019-04-05T16:39:20.929Z,85.41
2019-04-05T16:41:50.303Z,85.57
2019-04-05T16:44:19.000Z,85.58
2019-04-05T16:46:47.721Z,86.48
2019-04-05T16:49:16.628Z,86.14
2019-04-05T16:51:46.823Z,86.59
2019-04-05T16:54:16.334Z,87.11
2019-04-05T16:56:45.728Z,87.52
2019-04-05T16:59:15.232Z,87.68
2019-04-05T17:01:44.941Z,87.68
2019-04-05T17:04:17.244Z,87.29
2019-04-05T17:06:48.036Z,87.52
2019-04-05T17:09:17.008Z,87.54
2019-04-05T17:11:46.619Z,87.13
2019-04-05T17:14:16.252Z,86.99
2019-04-05T17:16:46.437Z,86.81
2019-04-05T17:19:16.685Z,87.10
2019-04-05T17:21:47.140Z,87.32
2019-04-05T17:24:18.068Z,87.43
2019-04-05T17:26:51.093Z,87.67
2019-04-05T17:29:21.812Z,87.10
2019-04-05T17:31:52.172Z,87.20
2019-04-05T17:34:21.776Z,86.96
2019-04-05T17:36:50.817Z,87.22
2019-04-05T17:39:19.761Z,86.71
2019-04-05T17:41:48.458Z,86.74
2019-04-05T17:44:17.235Z,87.21
2019-04-05T17:46:45.944Z,87.09
2019-04-05T17:49:14.880Z,86.68
2019-04-05T17:51:43.563Z,86.60
2019-04-05T17:54:13.031Z,86.57
2019-04-05T17:56:42.124Z,87.00
2019-04-05T17:59:10.876Z,87.29
2019-04-05T18:01:39.587Z,87.77
2019-04-05T18:04:08.894Z,87.99
2019-04-05T18:06:37.980Z,87.15
2019-04-05T18:09:10.140Z,87.12
2019-04-05T18:11:39.136Z,87.63
2019-04-05T18:14:08.289Z,87.59
2019-04-05T18:16:38.338Z,87.77
2019-04-05T18:19:07.477Z,87.88
2019-04-05T18:21:37.263Z,87.87
2019-04-05T18:24:07.146Z,87.44
2019-04-05T18:26:36.102Z,87.61
2019-04-05T18:29:04.860Z,87.66
2019-04-05T18:31:33.796Z,87.86
2019-04-05T18:34:02.465Z,87.93
2019-04-05T18:36:31.163Z,88.13
2019-04-05T18:39:00.099Z,88.48
2019-04-05T18:41:31.154Z,88.27
2019-04-05T18:43:59.837Z,87.92
2019-04-05T18:46:29.046Z,87.63
2019-04-05T18:48:57.726Z,87.32
2019-04-05T18:51:26.993Z,87.27
2019-04-05T18:53:55.678Z,87.63
2019-04-05T18:56:24.620Z,87.79
2019-04-05T18:58:53.328Z,88.20
2019-04-05T19:01:22.043Z,87.53
2019-04-05T19:03:50.789Z,87.88
2019-04-05T19:06:21.913Z,88.19
2019-04-05T19:08:50.586Z,88.18
2019-04-05T19:11:19.274Z,87.00
2019-04-05T19:14:00.615Z,86.36
2019-04-05T19:16:20.244Z,86.30
2019-04-05T19:18:48.917Z,86.73
2019-04-05T19:21:20.535Z,86.45
2019-04-05T19:23:51.393Z,86.41
2019-04-05T19:26:20.466Z,86.38
2019-04-05T19:28:49.456Z,86.42
2019-04-05T19:48:53.247Z,87.42
2019-04-05T19:51:22.581Z,87.12
2019-04-05T19:54:00.807Z,86.77
2019-04-05T19:56:21.984Z,87.16
2019-04-05T19:58:50.914Z,86.59
2019-04-05T20:01:19.650Z,86.27
2019-04-05T20:03:48.470Z,86.63
2019-04-05T20:06:17.175Z,87.44
2019-04-05T20:08:45.863Z,87.31
2019-04-05T20:11:15.053Z,87.65
2019-04-05T20:13:44.204Z,87.39
2019-04-05T20:16:12.981Z,87.39
2019-04-05T20:18:42.472Z,87.35
2019-04-05T20:21:11.429Z,87.24
2019-04-05T20:23:47.494Z,87.41
2019-04-05T20:26:11.045Z,87.90
2019-04-05T20:28:39.985Z,87.31
2019-04-05T20:31:08.672Z,87.51
2019-04-05T20:33:37.376Z,87.33
2019-04-05T20:36:06.145Z,87.34
2019-04-05T20:38:35.090Z,87.65
2019-04-05T20:41:03.791Z,87.24
2019-04-05T20:43:32.515Z,86.95
2019-04-05T20:46:01.449Z,87.13
2019-04-05T20:48:30.215Z,87.20
2019-04-05T20:50:59.139Z,87.30
2019-04-05T20:53:28.170Z,87.17
2019-04-05T20:55:56.945Z,87.05
2019-04-05T20:58:25.639Z,87.42
2019-04-05T21:00:54.680Z,87.53
2019-04-05T21:03:23.374Z,88.06
2019-04-05T21:05:52.409Z,88.61
2019-04-05T21:08:21.275Z,89.01
2019-04-05T21:10:49.975Z,88.76
2019-04-05T21:13:19.545Z,88.10
2019-04-05T21:15:48.216Z,87.30
2019-04-05T21:18:17.162Z,87.24
2019-04-05T21:20:46.322Z,87.46
2019-04-05T21:23:15.273Z,88.33
2019-04-05T21:25:44.196Z,88.81
2019-04-05T21:28:13.152Z,89.03
2019-04-05T21:30:41.841Z,89.24
2019-04-05T21:33:10.809Z,89.04
2019-04-05T21:35:39.574Z,89.07
2019-04-05T21:38:08.324Z,89.26
2019-04-05T21:40:37.249Z,88.68
2019-04-05T21:43:06.079Z,88.94
2019-04-05T21:45:34.816Z,89.30
2019-04-05T21:48:03.514Z,89.27
2019-04-05T21:50:32.202Z,89.27
2019-04-05T21:53:00.948Z,89.36
2019-04-05T21:55:29.578Z,89.62
2019-04-05T21:57:58.338Z,89.63
2019-04-05T22:00:33.429Z,89.16
2019-04-05T22:03:02.404Z,88.84
2019-04-05T22:05:31.108Z,88.97
2019-04-05T22:08:00.155Z,88.43
2019-04-05T22:10:31.893Z,88.75
2019-04-05T22:13:00.952Z,89.15
2019-04-05T22:15:29.639Z,89.12
2019-04-05T22:17:58.683Z,88.83
2019-04-05T22:20:27.869Z,89.00
2019-04-05T22:22:56.584Z,89.45
2019-04-05T22:25:25.971Z,89.15
2019-04-05T22:27:54.958Z,89.16
2019-04-05T22:30:23.718Z,89.00
2019-04-05T22:32:52.431Z,88.18
2019-04-05T22:35:21.412Z,88.42
2019-04-05T22:37:50.097Z,88.65
2019-04-05T22:40:18.797Z,88.96
2019-04-05T22:42:47.484Z,88.94
2019-04-05T22:45:16.252Z,89.32
2019-04-05T22:47:44.930Z,89.48
2019-04-05T22:50:13.725Z,89.38
2019-04-05T22:52:43.280Z,88.60
2019-04-05T22:55:12.247Z,88.90
2019-04-05T22:57:41.201Z,89.35
2019-04-05T23:00:10.963Z,89.45
2019-04-05T23:02:42.054Z,89.30
2019-04-05T23:05:11.014Z,89.28
2019-04-05T23:07:40.269Z,89.42
2019-04-05T23:10:10.101Z,89.39
2019-04-05T23:12:39.234Z,89.16
2019-04-05T23:15:08.688Z,89.06
2019-04-05T23:17:37.779Z,88.92
2019-04-05T23:20:07.299Z,88.93
2019-04-05T23:22:36.393Z,89.12
2019-04-05T23:25:05.316Z,89.07
2019-04-05T23:27:34.309Z,89.16
2019-04-05T23:30:03.972Z,89.19
2019-04-05T23:32:33.235Z,89.25
2019-04-05T23:35:02.230Z,89.30
2019-04-05T23:37:30.796Z,89.35
2019-04-05T23:39:59.515Z,89.06
2019-04-05T23:42:28.528Z,89.04
2019-04-05T23:44:57.838Z,89.06
2019-04-05T23:47:26.533Z,89.29
2019-04-05T23:49:56.834Z,89.22
2019-04-05T23:52:25.830Z,89.36
2019-04-05T23:54:54.960Z,89.29
2019-04-05T23:57:23.648Z,88.91
2019-04-05T23:59:52.663Z,88.78
